1998 REX (1998235N17131)


On this page: IBTrACS data - Map and Plots - Positions - Intensities - Original source data

Summary

Start Aug 22
End Sep 9
Basins EP
WP
LMI 115 kt
Sources jtwc_wp
tokyo
cma
hko
In WMO? Yes
Previous storm 1998 CHARLEY (NA)
Previous in basin 1998 TD0821 (WP)
Concurrent storms 1998 HOWARD (EP)
1998 BONNIE (NA)
1998 TD0821 (WP)
1998 CHARLEY (NA)
1998 REX (WP)
1998 DANIELLE (NA)
1998 ISIS (EP)
1998 TD0901 (WP)
1998 EARL (NA)
1998 JAVIER (EP)
1998 FRANCES (NA)
Next in basin 1998 TD0901 (WP)
Next storm 1998 DANIELLE (NA)

top of page IBTrACS Data: File Access

top of page HURSAT Data: File Access

Image of storm

top of page Plots:

Map of storm track will not appear if FTP is down
Time series of cyclone Maximum Sustained Wind will not appear if FTP is down
Time series of cyclone Minimum Central Pressure will not appear if FTP is down

top of page Track Data:Position

jtwc_wp tokyo cma hko
Date Lat Lon Lat Lon Lat Lon Lat Lon
1998-08-22 12:00:00 16.6 130.5
1998-08-22 18:00:00 16.7 129.4
1998-08-23 00:00:00 17.4 128.6
1998-08-23 06:00:00 18.5 128.7
1998-08-23 12:00:00 19.5 129.4
1998-08-23 18:00:00 20.6 130.0 18.9 129.5
1998-08-24 00:00:00 21.5 130.5 20.5 129.7 20.0 129.2 20.2 129.6
1998-08-24 06:00:00 22.3 131.1 21.2 129.8 20.7 129.7 21.5 130.1
1998-08-24 12:00:00 22.9 131.6 22.4 130.6 22.0 130.5 22.7 130.8
1998-08-24 18:00:00 23.6 132.1 23.5 131.6 23.5 131.5 23.5 131.6
1998-08-25 00:00:00 24.2 132.6 24.3 132.4 24.3 132.4 24.2 132.3
1998-08-25 06:00:00 24.5 133.1 24.8 133.1 24.8 133.1 24.7 133.0
1998-08-25 12:00:00 24.7 133.7 25.1 133.6 25.1 133.6 25.0 133.6
1998-08-25 18:00:00 24.8 134.3 25.2 134.6 25.2 134.6 25.2 134.3
1998-08-26 00:00:00 24.8 135.4 25.2 135.2 25.0 135.2 25.2 135.1
1998-08-26 06:00:00 24.8 136.2 25.0 136.0 25.0 136.0 25.0 136.0
1998-08-26 12:00:00 24.7 137.0 24.6 136.9 24.5 136.9 24.7 136.9
1998-08-26 18:00:00 24.5 137.7 24.6 137.6 24.6 137.6 24.6 137.7
1998-08-27 00:00:00 24.6 138.5 24.7 138.3 24.7 138.3 24.7 138.4
1998-08-27 06:00:00 25.0 139.2 24.9 139.1 24.9 139.1 25.0 139.0
1998-08-27 12:00:00 25.5 139.8 25.3 139.7 25.4 139.7 25.4 139.6
1998-08-27 18:00:00 25.9 140.1 25.9 140.1 25.9 140.0 25.9 140.0
1998-08-28 00:00:00 26.4 140.5 26.5 140.5 26.5 140.4 26.4 140.4
1998-08-28 06:00:00 26.9 140.8 27.0 140.8 27.0 140.8 27.0 140.7
1998-08-28 12:00:00 27.4 140.9 27.5 141.0 27.5 141.0 27.5 140.8
jtwc_wp tokyo cma hko
1998-08-28 18:00:00 27.8 140.9 27.9 141.0 27.9 141.0 27.9 140.9
1998-08-29 00:00:00 28.1 140.9 28.2 141.0 28.2 141.0 28.3 140.9
1998-08-29 06:00:00 28.5 140.9 28.5 141.0 28.5 141.0 28.6 140.9
1998-08-29 12:00:00 28.8 140.9 28.8 141.0 28.8 141.0 28.9 140.9
1998-08-29 18:00:00 29.2 141.0 29.1 141.0 29.1 141.0 29.2 140.9
1998-08-30 00:00:00 29.6 141.2 29.4 141.0 29.5 141.0 29.7 141.0
1998-08-30 06:00:00 30.1 141.4 30.2 141.2 30.2 141.2 30.1 141.2
1998-08-30 12:00:00 30.5 141.8 30.5 141.6 30.5 141.6 30.5 141.6
1998-08-30 18:00:00 30.9 142.4 30.8 142.3 30.8 142.2 30.9 142.2
1998-08-31 00:00:00 31.3 143.1 31.3 143.0 31.3 143.0 31.3 143.0
1998-08-31 06:00:00 31.5 144.0 31.6 144.1 31.6 144.1 31.6 144.0
1998-08-31 12:00:00 31.3 144.9 31.3 144.9 31.3 144.9 31.3 144.9
1998-08-31 18:00:00 30.9 146.0 30.7 145.7 30.7 145.7 30.8 145.8
1998-09-01 00:00:00 30.5 147.1 30.2 147.0 30.2 147.0 30.3 146.9
1998-09-01 06:00:00 29.9 148.2 29.8 148.1 29.8 148.1 29.9 148.0
1998-09-01 12:00:00 29.3 149.2 29.3 149.2 29.3 149.2 29.4 149.1
1998-09-01 18:00:00 29.0 150.2 28.9 150.2 29.0 150.2 29.1 150.2
1998-09-02 00:00:00 28.9 151.3 28.9 151.3 28.9 151.3 29.1 151.3
1998-09-02 06:00:00 29.4 152.2 29.3 152.3 29.3 152.3 29.5 152.3
1998-09-02 12:00:00 29.8 153.1 29.9 153.2 29.9 153.2 30.0 153.0
1998-09-02 18:00:00 30.4 153.7 30.5 153.7 30.5 153.7 30.5 153.5
1998-09-03 00:00:00 30.9 154.0 31.0 154.0 31.0 154.0 30.9 153.9
1998-09-03 06:00:00 31.3 154.4 31.3 154.3 31.3 154.3 31.2 154.3
1998-09-03 12:00:00 31.4 154.8 31.4 154.8 31.4 154.8 31.4 154.8
jtwc_wp tokyo cma hko
1998-09-03 18:00:00 31.5 155.2 31.5 155.4 31.5 155.3 31.5 155.4
1998-09-04 00:00:00 31.5 155.7 31.5 156.0 31.5 156.0 31.5 156.0
1998-09-04 06:00:00 31.5 156.4 31.5 156.7 31.5 156.5 31.5 156.6
1998-09-04 12:00:00 31.6 157.0 31.6 157.1 31.5 157.1 31.6 157.1
1998-09-04 18:00:00 31.8 157.4 31.8 157.4 31.8 157.4 31.8 157.4
1998-09-05 00:00:00 32.2 157.7 32.0 157.6 32.0 157.6 32.1 157.7
1998-09-05 06:00:00 32.8 157.9 32.8 158.0 32.8 158.0 32.6 158.0
1998-09-05 12:00:00 33.5 158.1 33.7 158.1 33.7 158.1 33.3 158.4
1998-09-05 18:00:00 34.4 158.4 34.2 158.4 34.2 158.4 34.1 158.9
1998-09-06 00:00:00 35.5 159.0 34.9 159.6 34.9 159.6 35.3 159.5
1998-09-06 06:00:00 36.8 159.9 36.5 161.0 36.6 160.8 36.7 160.4
1998-09-06 12:00:00 39.0 161.6 38.7 162.1 38.6 161.7 38.6 161.7
1998-09-06 18:00:00 41.9 163.7 42.6 163.0 41.6 163.7
1998-09-07 00:00:00 45.2 165.9 46.0 164.4 45.8 164.3
1998-09-07 06:00:00 47.6 167.5 48.5 166.0 48.1 166.0
1998-09-07 12:00:00 49.3 168.8 50.0 167.9
1998-09-07 18:00:00 50.0 169.8 50.6 169.6
1998-09-08 00:00:00 50.3 170.7 50.6 170.5
1998-09-08 06:00:00 50.1 172.7 50.6 173.2
1998-09-08 12:00:00 49.9 176.1 50.6 176.8
1998-09-08 18:00:00 49.5 -179.9 50.6 180.8
1998-09-09 00:00:00 48.6 -174.8

top of pageTrack Data:Intensity

jtwc_wp tokyo cma hko
Date Wind Pres Wind Pres Wind Pres Wind Pres
1998-08-22 12:00:00 20.
1998-08-22 18:00:00 25.
1998-08-23 00:00:00 30.
1998-08-23 06:00:00 35.
1998-08-23 12:00:00 35.
1998-08-23 18:00:00 35. 25. 1005.
1998-08-24 00:00:00 35. 1006. 29. 1004. 25. 1005.
1998-08-24 06:00:00 35. 1004. 29. 1004. 25. 1005.
1998-08-24 12:00:00 35. 1004. 29. 1004. 30. 1000.
1998-08-24 18:00:00 40. 1002. 29. 1002. 35. 998.
1998-08-25 00:00:00 45. 35. 996. 35. 998. 40. 994.
1998-08-25 06:00:00 50. 40. 990. 35. 998. 40. 994.
1998-08-25 12:00:00 55. 45. 985. 45. 990. 45. 990.
1998-08-25 18:00:00 60. 50. 980. 49. 985. 50. 985.
1998-08-26 00:00:00 70. 60. 975. 58. 980. 55. 980.
1998-08-26 06:00:00 80. 65. 965. 68. 970. 65. 970.
1998-08-26 12:00:00 90. 70. 960. 78. 965. 70. 965.
1998-08-26 18:00:00 90. 70. 960. 78. 960. 70. 965.
1998-08-27 00:00:00 90. 70. 960. 78. 960. 70. 965.
1998-08-27 06:00:00 90. 70. 960. 78. 960. 70. 965.
1998-08-27 12:00:00 100. 70. 960. 78. 960. 70. 965.
1998-08-27 18:00:00 105. 70. 960. 78. 960. 70. 965.
1998-08-28 00:00:00 110. 70. 960. 78. 960. 70. 965.
1998-08-28 06:00:00 115. 70. 960. 78. 960. 75. 960.
1998-08-28 12:00:00 115. 70. 960. 78. 960. 80. 955.
jtwc_wp tokyo cma hko
1998-08-28 18:00:00 115. 70. 960. 78. 960. 80. 955.
1998-08-29 00:00:00 110. 75. 955. 87. 955. 85. 950.
1998-08-29 06:00:00 105. 75. 955. 87. 955. 85. 950.
1998-08-29 12:00:00 100. 75. 955. 87. 955. 80. 955.
1998-08-29 18:00:00 95. 75. 955. 78. 960. 75. 960.
1998-08-30 00:00:00 90. 70. 960. 68. 970. 70. 965.
1998-08-30 06:00:00 90. 70. 960. 68. 970. 70. 965.
1998-08-30 12:00:00 90. 70. 960. 68. 970. 70. 965.
1998-08-30 18:00:00 90. 70. 960. 68. 970. 70. 965.
1998-08-31 00:00:00 90. 70. 960. 68. 970. 70. 965.
1998-08-31 06:00:00 90. 70. 960. 68. 970. 75. 960.
1998-08-31 12:00:00 90. 70. 960. 68. 970. 80. 955.
1998-08-31 18:00:00 95. 70. 960. 68. 970. 75. 960.
1998-09-01 00:00:00 100. 70. 960. 78. 965. 75. 960.
1998-09-01 06:00:00 100. 70. 960. 78. 965. 70. 965.
1998-09-01 12:00:00 100. 70. 960. 78. 965. 70. 965.
1998-09-01 18:00:00 100. 65. 965. 68. 970. 65. 970.
1998-09-02 00:00:00 95. 65. 965. 64. 975. 65. 970.
1998-09-02 06:00:00 90. 65. 965. 64. 975. 65. 970.
1998-09-02 12:00:00 85. 65. 965. 64. 975. 65. 970.
1998-09-02 18:00:00 80. 65. 965. 64. 975. 65. 970.
1998-09-03 00:00:00 75. 65. 970. 64. 975. 65. 970.
1998-09-03 06:00:00 70. 65. 970. 64. 975. 65. 970.
1998-09-03 12:00:00 65. 65. 970. 64. 975. 65. 970.
jtwc_wp tokyo cma hko
1998-09-03 18:00:00 65. 65. 970. 64. 975. 65. 970.
1998-09-04 00:00:00 65. 60. 975. 58. 980. 60. 975.
1998-09-04 06:00:00 65. 60. 975. 58. 980. 60. 975.
1998-09-04 12:00:00 65. 60. 975. 58. 980. 60. 975.
1998-09-04 18:00:00 60. 60. 975. 58. 980. 60. 975.
1998-09-05 00:00:00 55. 60. 975. 58. 980. 60. 975.
1998-09-05 06:00:00 55. 60. 975. 58. 980. 60. 975.
1998-09-05 12:00:00 55. 55. 980. 54. 985. 60. 975.
1998-09-05 18:00:00 55. 55. 980. 54. 985. 60. 975.
1998-09-06 00:00:00 55. 55. 980. 54. 985. 55. 980.
1998-09-06 06:00:00 55. 55. 980. 49. 985. 55. 980.
1998-09-06 12:00:00 55. 55. 980. 49. 985. 55. 980.
1998-09-06 18:00:00 55. 55. 980. 49. 985.
1998-09-07 00:00:00 55. 980. 49. 985.
1998-09-07 06:00:00 55. 980. 49. 985.
1998-09-07 12:00:00 55. 980.
1998-09-07 18:00:00 50. 980.
1998-09-08 00:00:00 50. 980.
1998-09-08 06:00:00 50. 980.
1998-09-08 12:00:00 55. 980.
1998-09-08 18:00:00 50. 980.
1998-09-09 00:00:00 50.

top of page Links to source data

Source Source file Format
jtwc_wp bwp061998.txt ATCF
tokyo bst_all.txt:Line=48196:REX:9804 JMA text table
cma CH1998BST.txt:Storm=6:REX CMA text table
hko tc-besttrack-data.txt:Line=27122:REX HKO Text table